Time;durP1;ratioP1;P1;durP2;ratioP2;P2;SDS_P1;SDS_P2;PMS_P1;PMS_P2;Temp;Humidity;BMP_temperature;BMP_pressure;BME280_temperature;BME280_humidity;BME280_pressure;Samples;Min_cycle;Max_cycle;Signal;HPM_P1;HPM_P2
2023/08/16 00:01:30;;;;;;;11.75;7.13;;;;;;;25.63;100.00;96438.50;5074820;28;20027;-87
2023/08/16 00:03:55;;;;;;;9.68;6.65;;;;;;;25.59;100.00;96445.47;5064953;28;20107;-87
2023/08/16 00:06:21;;;;;;;10.55;7.45;;;;;;;25.30;100.00;96446.66;5070704;28;20027;-87
2023/08/16 00:08:47;;;;;;;8.52;6.93;;;;;;;25.53;100.00;96443.75;5073128;28;20056;-87
2023/08/16 00:11:14;;;;;;;10.77;7.10;;;;;;;25.83;100.00;96439.88;5056835;28;20071;-86
2023/08/16 00:13:40;;;;;;;8.77;7.25;;;;;;;25.67;100.00;96438.81;5073571;28;20031;-87
2023/08/16 00:16:06;;;;;;;9.63;6.47;;;;;;;25.78;100.00;96435.19;5074620;28;20088;-87
2023/08/16 00:18:40;;;;;;;15.27;6.30;;;;;;;25.79;100.00;96436.00;5056101;28;20651;-88
2023/08/16 00:21:05;;;;;;;8.95;6.10;;;;;;;25.59;100.00;96426.59;5052183;28;20052;-87
2023/08/16 00:27:19;;;;;;;10.38;5.85;;;;;;;25.74;100.00;96423.28;5069881;28;20133;-87
2023/08/16 00:29:46;;;;;;;11.82;6.80;;;;;;;25.38;100.00;96417.44;5055597;28;20402;-87
2023/08/16 00:32:12;;;;;;;11.52;7.25;;;;;;;25.88;100.00;96423.75;5075754;28;20030;-87
2023/08/16 00:34:38;;;;;;;12.10;6.78;;;;;;;25.65;100.00;96419.38;5077170;28;20115;-87
2023/08/16 00:37:03;;;;;;;10.98;6.05;;;;;;;25.81;100.00;96423.13;5074215;28;20029;-87
2023/08/16 00:39:29;;;;;;;8.10;6.55;;;;;;;25.43;100.00;96416.69;5057937;28;20028;-87
2023/08/16 00:41:54;;;;;;;8.45;6.00;;;;;;;25.64;100.00;96420.47;5057834;28;20020;-87
2023/08/16 00:44:24;;;;;;;9.10;6.45;;;;;;;25.73;100.00;96413.56;5074796;28;20035;-87
2023/08/16 00:46:50;;;;;;;11.48;6.32;;;;;;;25.33;100.00;96411.19;5059075;28;20088;-87
2023/08/16 00:49:16;;;;;;;12.48;7.10;;;;;;;25.33;100.00;96409.28;5075091;28;20033;-86
2023/08/16 00:51:43;;;;;;;8.10;6.82;;;;;;;25.30;100.00;96409.78;5057881;28;20036;-87
2023/08/16 00:54:10;;;;;;;10.15;6.75;;;;;;;25.51;100.00;96418.13;5057845;28;20031;-87
2023/08/16 00:56:36;;;;;;;10.35;7.35;;;;;;;25.36;100.00;96416.06;5055686;28;20052;-87
2023/08/16 00:59:03;;;;;;;10.85;8.32;;;;;;;25.39;100.00;96407.50;5057432;28;20063;-87
2023/08/16 01:01:29;;;;;;;12.38;7.78;;;;;;;25.58;100.00;96410.69;5053345;28;20032;-85
2023/08/16 01:03:55;;;;;;;10.73;8.32;;;;;;;25.16;100.00;96417.41;5055758;28;20055;-87
2023/08/16 01:06:21;;;;;;;11.40;7.28;;;;;;;25.17;100.00;96416.34;5071439;28;20481;-87
2023/08/16 01:08:46;;;;;;;10.50;7.88;;;;;;;25.06;100.00;96417.22;5053591;28;20031;-86
2023/08/16 01:11:37;;;;;;;14.07;8.75;;;;;;;25.22;100.00;96415.63;5068449;28;20029;-87
2023/08/16 01:14:16;;;;;;;10.70;7.95;;;;;;;25.23;100.00;96416.41;5041147;28;20111;-86
2023/08/16 01:16:48;;;;;;;11.55;7.38;;;;;;;24.86;100.00;96422.31;5072280;28;20036;-87
2023/08/16 01:19:25;;;;;;;10.63;7.68;;;;;;;25.02;100.00;96415.28;5070725;28;20086;-87
2023/08/16 01:21:59;;;;;;;8.95;6.85;;;;;;;24.97;100.00;96407.13;5073273;28;20033;-86
2023/08/16 01:24:33;;;;;;;12.93;7.28;;;;;;;24.74;100.00;96410.78;5070914;28;20120;-85
2023/08/16 01:27:24;;;;;;;12.32;7.85;;;;;;;24.70;100.00;96405.91;5066649;28;20497;-86
2023/08/16 01:29:52;;;;;;;13.13;7.50;;;;;;;24.44;100.00;96414.59;5069237;28;20028;-87
2023/08/16 01:32:18;;;;;;;10.55;7.43;;;;;;;24.91;100.00;96409.72;5064025;28;20024;-86
2023/08/16 01:34:43;;;;;;;12.32;7.65;;;;;;;24.97;100.00;96407.94;5068467;28;20023;-87
2023/08/16 01:37:09;;;;;;;10.35;7.20;;;;;;;24.89;100.00;96394.91;5075579;28;20024;-87
2023/08/16 01:39:35;;;;;;;12.10;7.25;;;;;;;24.84;100.00;96405.56;5056428;28;20518;-87
2023/08/16 01:42:15;;;;;;;11.60;7.82;;;;;;;24.94;100.00;96403.03;5074380;28;20675;-86
2023/08/16 01:44:41;;;;;;;12.70;8.32;;;;;;;25.06;100.00;96405.66;5052803;28;20036;-86
2023/08/16 01:47:08;;;;;;;12.73;8.73;;;;;;;25.07;100.00;96408.09;5053293;28;20028;-87
2023/08/16 01:49:35;;;;;;;10.68;8.38;;;;;;;24.91;100.00;96414.28;5054260;28;20044;-87
2023/08/16 01:52:02;;;;;;;15.77;9.15;;;;;;;24.70;100.00;96407.78;5072214;28;20071;-86
2023/08/16 01:54:27;;;;;;;14.20;8.30;;;;;;;24.95;100.00;96415.44;5059923;28;20027;-86
2023/08/16 01:56:53;;;;;;;13.43;8.65;;;;;;;24.86;100.00;96408.84;5051094;28;20028;-86
2023/08/16 01:59:18;;;;;;;9.80;7.88;;;;;;;24.95;100.00;96404.69;5059413;28;20093;-86
2023/08/16 02:01:45;;;;;;;11.45;9.25;;;;;;;24.85;100.00;96407.22;5050712;28;20032;-86
2023/08/16 02:04:11;;;;;;;11.73;8.55;;;;;;;24.81;100.00;96398.00;5053613;28;20028;-86
2023/08/16 02:06:37;;;;;;;11.43;8.35;;;;;;;24.97;100.00;96399.84;5068601;28;20036;-86
2023/08/16 02:09:02;;;;;;;10.45;9.23;;;;;;;25.14;100.00;96397.97;5056147;28;20024;-87
2023/08/16 02:11:30;;;;;;;11.50;9.13;;;;;;;24.90;100.00;96389.28;5068927;28;20028;-86
2023/08/16 02:13:55;;;;;;;14.20;9.55;;;;;;;25.08;100.00;96387.38;5048896;28;20032;-86
2023/08/16 02:16:28;;;;;;;12.15;9.60;;;;;;;25.03;100.00;96387.31;5058952;28;20020;-86
2023/08/16 02:18:54;;;;;;;11.55;8.80;;;;;;;25.00;100.00;96387.81;5046806;28;20040;-86
2023/08/16 02:21:20;;;;;;;10.52;8.50;;;;;;;25.02;100.00;96391.88;5046309;28;20487;-86
2023/08/16 02:23:45;;;;;;;11.95;8.60;;;;;;;24.87;100.00;96387.06;5067472;28;20031;-86
2023/08/16 02:26:12;;;;;;;12.48;8.88;;;;;;;24.92;100.00;96386.34;5055279;28;20111;-86
2023/08/16 02:28:37;;;;;;;11.25;9.07;;;;;;;24.86;100.00;96390.03;5072255;28;20107;-86
2023/08/16 02:31:05;;;;;;;11.25;9.02;;;;;;;24.79;100.00;96389.38;5052607;28;20025;-86
2023/08/16 02:33:35;;;;;;;10.57;9.48;;;;;;;24.49;100.00;96378.94;5062759;28;20031;-87
2023/08/16 02:36:01;;;;;;;13.27;9.18;;;;;;;24.76;100.00;96385.28;5049654;28;20032;-86
2023/08/16 02:38:28;;;;;;;12.65;10.25;;;;;;;24.41;100.00;96389.03;5071841;28;20032;-86
2023/08/16 02:40:54;;;;;;;14.63;10.00;;;;;;;24.54;100.00;96379.00;5071682;28;20029;-86
2023/08/16 02:43:20;;;;;;;15.13;9.75;;;;;;;24.66;100.00;96377.88;5055476;28;20039;-87
2023/08/16 02:45:46;;;;;;;12.18;9.95;;;;;;;24.94;100.00;96376.13;5055012;28;20032;-86
2023/08/16 02:48:11;;;;;;;11.82;9.25;;;;;;;24.89;100.00;96374.19;5055869;28;20028;-86
2023/08/16 02:50:43;;;;;;;12.05;9.68;;;;;;;24.84;100.00;96374.09;5058552;28;20111;-85
2023/08/16 02:53:09;;;;;;;12.73;9.80;;;;;;;24.87;100.00;96375.50;5038812;28;20395;-86
2023/08/16 02:55:34;;;;;;;11.05;9.63;;;;;;;24.62;100.00;96374.06;5051885;28;20032;-85
2023/08/16 02:58:00;;;;;;;13.35;9.65;;;;;;;24.39;100.00;96379.56;5052054;28;20033;-86
2023/08/16 03:00:26;;;;;;;13.98;9.50;;;;;;;24.02;100.00;96382.66;5068070;28;20029;-86
2023/08/16 03:02:51;;;;;;;11.70;8.93;;;;;;;24.05;100.00;96387.56;5067996;28;20031;-87
2023/08/16 03:05:17;;;;;;;11.25;9.02;;;;;;;24.15;100.00;96393.13;5049566;28;20029;-86
2023/08/16 03:07:43;;;;;;;10.93;8.45;;;;;;;24.12;100.00;96385.53;5050129;28;20112;-86
2023/08/16 03:10:09;;;;;;;10.55;8.48;;;;;;;24.41;100.00;96390.91;5047760;28;20359;-86
2023/08/16 03:12:35;;;;;;;10.45;9.35;;;;;;;24.18;100.00;96383.78;5065603;28;20555;-86
2023/08/16 03:15:00;;;;;;;11.80;9.20;;;;;;;23.88;100.00;96379.47;5071419;28;20032;-86
2023/08/16 03:17:28;;;;;;;13.77;10.10;;;;;;;23.83;100.00;96387.41;5068911;28;20056;-86
2023/08/16 03:19:53;;;;;;;11.43;10.23;;;;;;;23.83;100.00;96386.59;5055510;28;20032;-86
2023/08/16 03:22:19;;;;;;;15.02;10.45;;;;;;;23.58;100.00;96389.56;5065923;28;20127;-86
2023/08/16 03:24:46;;;;;;;15.48;11.18;;;;;;;23.43;100.00;96382.00;5071660;28;20456;-86
2023/08/16 03:27:13;;;;;;;15.00;11.10;;;;;;;23.49;100.00;96389.13;5055425;28;20028;-86
2023/08/16 03:29:39;;;;;;;13.27;11.88;;;;;;;23.44;100.00;96391.69;5057432;28;20482;-86
2023/08/16 03:32:05;;;;;;;14.55;12.35;;;;;;;23.39;100.00;96397.78;5052345;28;20028;-85
2023/08/16 03:34:32;;;;;;;13.23;11.13;;;;;;;23.32;100.00;96397.09;5078689;28;21119;-86
2023/08/16 03:36:59;;;;;;;12.65;10.48;;;;;;;23.27;100.00;96399.66;5065761;28;20449;-86
2023/08/16 03:39:25;;;;;;;13.82;10.90;;;;;;;22.95;100.00;96394.66;5058733;28;20107;-86
2023/08/16 03:41:51;;;;;;;13.27;9.90;;;;;;;22.85;100.00;96391.72;5056273;28;20016;-86
2023/08/16 03:44:21;;;;;;;12.48;10.50;;;;;;;22.99;100.00;96400.38;5067179;28;20020;-86
2023/08/16 03:46:47;;;;;;;17.50;12.48;;;;;;;23.09;100.00;96402.47;5054356;28;20028;-86
2023/08/16 03:49:12;;;;;;;14.13;10.48;;;;;;;22.88;100.00;96396.63;5058375;28;20486;-86
2023/08/16 03:51:40;;;;;;;14.30;11.25;;;;;;;23.05;100.00;96402.94;5059570;28;20027;-86
2023/08/16 03:57:49;;;;;;;15.57;12.88;;;;;;;23.08;100.00;96401.66;5067374;28;20032;-86
2023/08/16 04:00:16;;;;;;;14.65;13.13;;;;;;;22.95;100.00;96402.72;5075292;28;20032;-85
2023/08/16 04:02:41;;;;;;;15.60;13.10;;;;;;;22.67;100.00;96408.75;5064893;28;20025;-86
2023/08/16 04:05:10;;;;;;;14.60;12.35;;;;;;;22.91;100.00;96411.44;5047234;28;20115;-85
2023/08/16 04:07:36;;;;;;;18.33;11.80;;;;;;;22.85;100.00;96409.69;5051322;28;20031;-86
2023/08/16 04:10:02;;;;;;;13.82;11.25;;;;;;;22.65;100.00;96412.69;5075156;28;20020;-86
2023/08/16 04:12:27;;;;;;;13.55;10.70;;;;;;;22.84;100.00;96416.91;5074405;28;20017;-86
2023/08/16 04:14:53;;;;;;;15.45;10.93;;;;;;;23.10;100.00;96415.66;5072132;28;20471;-86
2023/08/16 04:17:18;;;;;;;14.55;10.50;;;;;;;23.30;100.00;96420.66;5053949;28;20082;-86
2023/08/16 04:19:44;;;;;;;10.45;9.23;;;;;;;23.58;100.00;96425.28;5071484;28;20079;-86
2023/08/16 04:22:29;;;;;;;11.80;9.68;;;;;;;23.68;100.00;96420.16;5056291;28;20029;-86
2023/08/16 04:24:58;;;;;;;11.95;9.10;;;;;;;23.60;100.00;96430.41;5065643;28;20082;-86
2023/08/16 04:27:24;;;;;;;13.25;9.55;;;;;;;23.86;100.00;96432.59;5073935;28;20033;-86
2023/08/16 04:29:49;;;;;;;15.40;9.38;;;;;;;23.91;100.00;96431.88;5057751;28;20020;-86
2023/08/16 04:32:15;;;;;;;12.52;8.93;;;;;;;24.07;100.00;96447.22;5057889;28;20024;-84
2023/08/16 04:34:40;;;;;;;12.23;9.02;;;;;;;24.06;100.00;96442.91;5054255;28;20471;-92
2023/08/16 04:37:06;;;;;;;12.30;9.07;;;;;;;23.98;100.00;96443.31;5075830;28;20012;-92
2023/08/16 04:39:45;;;;;;;14.90;9.18;;;;;;;24.10;100.00;96456.69;5058387;28;20025;-91
2023/08/16 04:42:11;;;;;;;13.65;8.75;;;;;;;24.17;100.00;96458.16;5055757;28;20478;-92
2023/08/16 04:44:37;;;;;;;11.60;8.70;;;;;;;24.20;100.00;96454.19;5071603;28;20523;-92
2023/08/16 04:47:02;;;;;;;9.57;7.95;;;;;;;24.34;100.00;96463.59;5075590;28;20032;-92
2023/08/16 04:49:28;;;;;;;11.93;8.43;;;;;;;24.25;100.00;96464.25;5059993;28;20077;-92
2023/08/16 04:51:54;;;;;;;14.48;8.52;;;;;;;24.17;100.00;96474.28;5075458;28;20028;-92
2023/08/16 04:54:19;;;;;;;12.77;8.35;;;;;;;24.33;100.00;96477.28;5059028;28;20024;-92
2023/08/16 04:56:45;;;;;;;12.77;9.10;;;;;;;24.51;100.00;96474.41;5070528;28;20036;-92
2023/08/16 04:59:11;;;;;;;11.50;9.25;;;;;;;24.70;100.00;96480.41;5059039;28;20029;-92
2023/08/16 05:01:36;;;;;;;11.63;8.52;;;;;;;24.77;100.00;96477.56;5068492;28;20611;-92
2023/08/16 05:04:03;;;;;;;10.77;8.30;;;;;;;24.87;100.00;96483.09;5060762;28;20024;-92
2023/08/16 05:06:30;;;;;;;11.43;8.25;;;;;;;25.07;100.00;96482.63;5075231;28;20024;-91
2023/08/16 05:08:55;;;;;;;13.43;7.55;;;;;;;25.17;100.00;96480.94;5075110;28;20053;-92
2023/08/16 05:11:27;;;;;;;9.52;8.43;;;;;;;25.36;100.00;96483.38;5062941;28;20120;-92
2023/08/16 05:13:52;;;;;;;11.63;9.07;;;;;;;24.86;100.00;96497.63;5059447;28;20453;-92
2023/08/16 05:16:24;;;;;;;11.10;8.85;;;;;;;25.12;100.00;96501.59;5058367;28;20032;-93
2023/08/16 05:18:53;;;;;;;12.02;8.68;;;;;;;25.09;100.00;96497.47;5057763;28;20029;-92
2023/08/16 05:21:20;;;;;;;11.90;8.32;;;;;;;25.42;100.00;96490.47;5053423;28;20024;-92
2023/08/16 05:23:46;;;;;;;10.40;8.38;;;;;;;25.43;100.00;96496.66;5057646;28;20025;-93
2023/08/16 05:26:11;;;;;;;11.70;9.30;;;;;;;25.77;100.00;96498.22;5072664;28;20482;-93
2023/08/16 05:28:37;;;;;;;13.43;8.55;;;;;;;25.61;100.00;96494.50;5075309;28;20024;-93
2023/08/16 05:31:08;;;;;;;11.00;7.97;;;;;;;25.58;100.00;96494.97;5058860;28;20031;-92
2023/08/16 05:33:39;;;;;;;9.70;8.30;;;;;;;25.85;100.00;96494.28;5055529;28;20048;-92
2023/08/16 05:36:06;;;;;;;10.23;8.73;;;;;;;25.92;100.00;96496.81;5059267;28;20004;-92
2023/08/16 05:38:32;;;;;;;12.88;8.35;;;;;;;25.95;100.00;96494.41;5093186;28;20083;-91
2023/08/16 05:40:59;;;;;;;12.98;8.50;;;;;;;25.82;100.00;96501.03;5075482;28;20009;-92
2023/08/16 05:43:24;;;;;;;10.70;9.13;;;;;;;26.37;100.00;96493.84;5082291;28;20125;-91
2023/08/16 05:45:50;;;;;;;12.75;9.73;;;;;;;26.26;100.00;96494.81;5069557;28;20398;-92
2023/08/16 05:48:16;;;;;;;11.25;9.23;;;;;;;26.36;100.00;96494.91;5058201;28;20482;-91
2023/08/16 05:50:41;;;;;;;13.45;9.55;;;;;;;26.42;100.00;96507.38;5056487;28;20077;-92
2023/08/16 05:53:07;;;;;;;11.05;8.57;;;;;;;26.97;100.00;96503.63;5059146;28;20025;-92
2023/08/16 05:55:34;;;;;;;12.80;8.90;;;;;;;27.66;100.00;96507.38;5063149;28;20085;-91
2023/08/16 05:58:00;;;;;;;14.25;10.70;;;;;;;27.39;100.00;96512.88;5059093;28;20021;-91
2023/08/16 06:00:25;;;;;;;10.05;8.82;;;;;;;27.85;100.00;96502.41;5074388;28;20035;-92
2023/08/16 06:02:56;;;;;;;13.52;7.80;;;;;;;28.03;100.00;96503.81;5075243;28;20028;-91
2023/08/16 06:05:21;;;;;;;9.75;7.72;;;;;;;27.89;100.00;96507.00;5074185;28;20038;-92
2023/08/16 06:07:47;;;;;;;8.75;6.03;;;;;;;28.48;100.00;96510.50;5073845;28;20652;-92
2023/08/16 06:10:12;;;;;;;8.73;7.07;;;;;;;28.51;100.00;96507.28;5066373;28;20021;-91
2023/08/16 06:12:38;;;;;;;13.05;7.32;;;;;;;28.26;100.00;96500.66;5057376;28;20027;-92
2023/08/16 06:15:21;;;;;;;9.48;6.57;;;;;;;28.94;100.00;96500.59;5053926;28;20024;-90
2023/08/16 06:17:46;;;;;;;;;;;;;;;28.84;100.00;96504.09;5068266;28;20020;-92
2023/08/16 06:20:13;;;;;;;9.30;7.35;;;;;;;29.09;100.00;96502.50;5071514;28;19912;-92
2023/08/16 06:22:39;;;;;;;8.68;6.75;;;;;;;29.51;100.00;96494.06;5074458;28;20505;-92
2023/08/16 06:25:06;;;;;;;10.10;7.72;;;;;;;29.66;100.00;96495.97;5057311;28;20020;-92
2023/08/16 06:27:33;;;;;;;10.55;6.75;;;;;;;30.11;100.00;96496.91;5053248;28;20132;-92
2023/08/16 06:29:59;;;;;;;12.88;8.20;;;;;;;29.48;100.00;96486.50;5072101;28;20101;-92
2023/08/16 06:32:46;;;;;;;9.15;7.18;;;;;;;29.98;100.00;96489.34;5073523;28;20104;-92
2023/08/16 06:35:12;;;;;;;9.52;7.80;;;;;;;29.84;100.00;96491.84;5046257;28;20032;-92
2023/08/16 06:37:39;;;;;;;11.65;9.27;;;;;;;29.90;100.00;96489.94;5074553;28;20048;-92
2023/08/16 06:40:05;;;;;;;13.68;7.97;;;;;;;30.16;100.00;96487.94;5053430;28;20047;-92
2023/08/16 06:42:32;;;;;;;11.48;8.05;;;;;;;30.33;100.00;96493.03;5069580;28;20259;-93
2023/08/16 06:44:57;;;;;;;11.02;8.00;;;;;;;30.70;100.00;96496.06;5053598;28;20029;-91
2023/08/16 06:47:23;;;;;;;13.23;9.15;;;;;;;30.55;100.00;96485.34;5050385;28;20032;-90
2023/08/16 06:49:49;;;;;;;13.40;8.38;;;;;;;30.57;100.00;96488.56;5072852;28;20024;-91
2023/08/16 06:52:14;;;;;;;11.77;8.10;;;;;;;30.97;100.00;96486.69;5072925;28;20050;-91
2023/08/16 06:54:42;;;;;;;18.42;8.98;;;;;;;31.13;100.00;96481.94;5073204;28;20028;-91
2023/08/16 06:57:08;;;;;;;10.40;8.13;;;;;;;30.57;100.00;96488.56;5057835;28;20561;-91
2023/08/16 06:59:35;;;;;;;9.77;7.43;;;;;;;30.89;100.00;96490.03;5056522;28;20074;-91
2023/08/16 07:02:00;;;;;;;10.98;7.70;;;;;;;31.05;100.00;96485.25;5069504;28;20142;-91
2023/08/16 07:04:26;;;;;;;10.00;7.43;;;;;;;30.56;100.00;96492.38;5076036;28;20028;-91
2023/08/16 07:07:01;;;;;;;9.73;7.15;;;;;;;30.84;100.00;96488.13;5054602;28;20119;-91
2023/08/16 07:09:27;;;;;;;15.10;7.45;;;;;;;30.65;100.00;96489.84;5056047;28;20119;-91
2023/08/16 07:11:53;;;;;;;10.05;6.65;;;;;;;31.86;100.00;96483.72;5056594;28;20050;-90
2023/08/16 07:14:18;;;;;;;9.55;8.23;;;;;;;31.11;100.00;96474.06;5055919;28;20047;-91
2023/08/16 07:16:44;;;;;;;10.35;8.35;;;;;;;32.01;100.00;96483.53;5055532;28;20095;-91
2023/08/16 07:19:09;;;;;;;12.25;7.93;;;;;;;32.06;100.00;96480.78;5057061;28;20025;-91
2023/08/16 07:21:35;;;;;;;11.93;8.07;;;;;;;32.45;100.00;96482.47;5065850;28;20032;-90
2023/08/16 07:24:02;;;;;;;8.82;7.28;;;;;;;32.23;100.00;96479.47;5053036;28;20111;-91
2023/08/16 07:26:27;;;;;;;9.95;6.70;;;;;;;31.88;100.00;96478.81;5056084;28;20078;-91
2023/08/16 07:28:55;;;;;;;10.80;7.90;;;;;;;32.27;100.00;96472.34;5048705;28;20037;-91
2023/08/16 07:31:20;;;;;;;9.35;6.47;;;;;;;32.45;100.00;96476.22;5061289;28;20550;-91
2023/08/16 07:33:46;;;;;;;9.65;5.90;;;;;;;33.37;100.00;96462.00;5068492;28;20056;-90
2023/08/16 07:36:11;;;;;;;9.27;6.28;;;;;;;33.26;100.00;96458.59;5057658;28;20031;-91
2023/08/16 07:38:37;;;;;;;10.05;6.93;;;;;;;32.65;100.00;96453.34;5056096;28;20096;-91
2023/08/16 07:41:02;;;;;;;9.90;6.97;;;;;;;32.47;100.00;96453.03;5055644;28;20259;-91
2023/08/16 07:43:29;;;;;;;9.52;6.45;;;;;;;31.17;100.00;96444.97;5061153;28;20056;-89
2023/08/16 07:46:13;;;;;;;7.70;5.80;;;;;;;32.13;100.00;96445.06;5068452;28;20039;-91
2023/08/16 07:48:39;;;;;;;8.18;6.18;;;;;;;31.72;100.00;96458.28;5064072;28;20048;-90
2023/08/16 07:51:06;;;;;;;7.47;5.47;;;;;;;30.96;100.00;96474.22;5055702;28;20032;-90
2023/08/16 07:53:31;;;;;;;8.98;5.85;;;;;;;31.15;100.00;96477.03;5071284;28;20016;-90
2023/08/16 07:55:59;;;;;;;8.13;5.43;;;;;;;31.30;100.00;96482.34;5072405;28;20433;-89
2023/08/16 07:58:24;;;;;;;7.28;4.95;;;;;;;32.52;100.00;96482.91;5073129;28;20020;-89
2023/08/16 08:00:54;;;;;;;9.73;5.55;;;;;;;31.64;100.00;96479.56;5073409;28;20044;-89
2023/08/16 08:03:21;;;;;;;6.32;4.72;;;;;;;32.34;100.00;96475.53;5074399;28;20154;-89
2023/08/16 08:05:47;;;;;;;9.23;5.07;;;;;;;33.68;100.00;96475.09;5062702;28;20024;-90
2023/08/16 08:08:14;;;;;;;9.32;5.38;;;;;;;33.24;100.00;96481.84;5056104;28;20020;-90
2023/08/16 08:10:46;;;;;;;9.32;5.15;;;;;;;33.13;100.00;96483.09;5093139;28;20024;-90
2023/08/16 08:13:11;;;;;;;8.35;5.20;;;;;;;32.54;100.00;96491.59;5053720;28;20020;-89
2023/08/16 08:15:37;;;;;;;8.32;5.40;;;;;;;32.87;100.00;96483.50;5059776;28;20036;-90
2023/08/16 08:18:03;;;;;;;8.30;5.10;;;;;;;33.61;100.00;96474.69;5073563;28;20021;-89
2023/08/16 08:20:47;;;;;;;8.88;5.88;;;;;;;34.14;100.00;96476.91;5059748;28;20552;-89
2023/08/16 08:23:17;;;;;;;9.77;5.53;;;;;;;35.16;95.23;96478.19;5057817;28;20036;-89
2023/08/16 08:25:44;;;;;;;6.28;4.32;;;;;;;35.78;86.81;96482.09;5056711;28;20070;-89
2023/08/16 08:28:30;;;;;;;5.95;4.72;;;;;;;36.19;82.81;96472.78;5068258;28;20020;-89
2023/08/16 08:30:55;;;;;;;7.38;4.72;;;;;;;36.66;79.26;96482.06;5066843;28;20107;-88
2023/08/16 08:33:21;;;;;;;7.80;4.75;;;;;;;34.84;93.73;96483.88;5060653;28;20044;-88
2023/08/16 08:35:46;;;;;;;8.75;4.82;;;;;;;35.36;88.89;96487.00;5048738;28;20470;-87
2023/08/16 08:38:12;;;;;;;8.15;4.53;;;;;;;34.73;89.57;96484.09;5058623;28;20031;-90
2023/08/16 08:40:38;;;;;;;7.20;4.53;;;;;;;35.58;84.27;96478.81;5079738;28;20044;-91
2023/08/16 08:46:12;;;;;;;6.47;4.50;;;;;;;35.51;84.36;96475.66;5033950;28;20064;-87
2023/08/16 08:48:38;;;;;;;8.48;4.68;;;;;;;34.80;88.74;96482.88;5075640;28;20506;-87
2023/08/16 08:51:09;;;;;;;7.90;4.80;;;;;;;34.54;93.24;96485.38;5076871;28;20498;-87
2023/08/16 08:53:35;;;;;;;6.38;4.75;;;;;;;34.18;97.97;96477.94;5058926;28;20024;-87
2023/08/16 08:56:09;;;;;;;8.45;4.60;;;;;;;35.27;88.65;96486.94;5059627;28;20522;-87
2023/08/16 08:58:39;;;;;;;8.40;4.47;;;;;;;36.16;82.06;96484.38;5051086;28;20020;-87
2023/08/16 09:01:07;;;;;;;5.43;4.15;;;;;;;35.95;83.78;96479.44;5076386;28;20038;-87
2023/08/16 09:03:34;;;;;;;7.68;4.82;;;;;;;36.33;83.32;96482.47;5056292;28;20025;-87
2023/08/16 09:06:01;;;;;;;8.35;4.78;;;;;;;36.83;77.82;96481.25;5071471;28;20016;-87
2023/08/16 09:08:30;;;;;;;9.13;4.50;;;;;;;37.46;71.28;96481.69;5069367;28;20466;-89
2023/08/16 09:10:59;;;;;;;7.07;4.00;;;;;;;38.51;64.67;96474.66;5074642;28;20020;-87
2023/08/16 09:13:25;;;;;;;6.45;4.53;;;;;;;37.73;68.75;96475.00;5051826;28;20042;-87
2023/08/16 09:15:51;;;;;;;6.72;3.97;;;;;;;38.53;64.35;96475.09;5071867;28;20020;-87
2023/08/16 09:18:19;;;;;;;9.13;6.72;;;;;;;38.31;67.26;96476.19;5056598;28;20378;-88
2023/08/16 09:20:45;;;;;;;10.48;4.97;;;;;;;36.67;69.09;96478.19;5041974;28;20017;-88
2023/08/16 09:23:15;;;;;;;7.80;4.80;;;;;;;38.64;63.88;96481.03;5055094;28;20071;-87
2023/08/16 09:25:41;;;;;;;7.70;5.35;;;;;;;38.57;61.90;96478.81;5061896;28;20048;-87
2023/08/16 09:28:18;;;;;;;8.98;5.13;;;;;;;38.13;60.04;96482.91;5073141;28;20031;-87
2023/08/16 09:30:44;;;;;;;7.85;5.85;;;;;;;39.20;61.45;96472.47;5059988;28;20377;-87
2023/08/16 09:33:14;;;;;;;7.03;4.70;;;;;;;39.68;56.59;96465.53;5069789;28;20040;-87
2023/08/16 09:35:48;;;;;;;8.50;5.60;;;;;;;38.67;61.52;96469.38;5077038;28;20028;-88
2023/08/16 09:38:49;;;;;;;6.18;4.07;;;;;;;40.33;53.44;96466.47;5075289;28;20112;-88
2023/08/16 09:41:18;;;;;;;9.52;4.97;;;;;;;40.24;53.69;96468.53;5075251;28;20021;-88
2023/08/16 09:44:08;;;;;;;7.70;5.07;;;;;;;39.41;55.04;96467.75;5067701;28;20040;-89
2023/08/16 09:46:34;;;;;;;7.88;5.07;;;;;;;40.56;53.13;96457.72;5073694;28;20138;-87
2023/08/16 09:49:08;;;;;;;8.02;4.80;;;;;;;40.21;52.44;96453.53;5059479;28;20017;-88
2023/08/16 09:51:39;;;;;;;7.20;4.28;;;;;;;39.57;52.33;96452.19;5066004;28;20475;-84
2023/08/16 09:54:16;;;;;;;6.28;4.18;;;;;;;38.05;58.57;96459.84;5059239;28;20013;-88
2023/08/16 09:56:43;;;;;;;8.50;4.10;;;;;;;38.57;52.86;96454.06;5058274;28;20035;-88
2023/08/16 09:59:11;;;;;;;7.88;3.65;;;;;;;38.26;52.73;96453.59;5055779;28;20119;-88
2023/08/16 10:01:37;;;;;;;5.20;3.88;;;;;;;39.80;50.32;96449.81;5073889;28;20803;-88
2023/08/16 10:04:11;;;;;;;12.55;7.00;;;;;;;39.29;56.17;96445.72;5059218;28;20359;-87
2023/08/16 10:06:37;;;;;;;7.70;4.53;;;;;;;40.03;51.57;96441.91;5073673;28;20032;-88
2023/08/16 10:09:04;;;;;;;6.45;4.18;;;;;;;39.58;51.45;96445.53;5074473;28;20044;-88
2023/08/16 10:11:33;;;;;;;10.48;7.07;;;;;;;40.87;47.43;96446.84;5057308;28;20013;-88
2023/08/16 10:14:02;;;;;;;7.40;4.20;;;;;;;39.94;49.42;96446.75;5053865;28;20028;-88
2023/08/16 10:16:30;;;;;;;6.22;4.07;;;;;;;40.92;48.22;96437.53;5075211;28;20024;-88
2023/08/16 10:19:00;;;;;;;7.65;3.53;;;;;;;40.49;49.44;96441.78;5049446;28;20480;-91
2023/08/16 10:21:29;;;;;;;5.78;3.30;;;;;;;39.93;47.54;96442.38;5073032;28;20025;-85
2023/08/16 10:24:21;;;;;;;6.53;3.95;;;;;;;40.35;48.14;96439.38;5050250;28;20020;-86
2023/08/16 10:26:48;;;;;;;5.30;3.03;;;;;;;39.11;42.45;96439.56;5066397;28;20025;-85
2023/08/16 10:29:16;;;;;;;6.13;3.05;;;;;;;37.98;45.64;96449.41;5072668;28;20055;-86
2023/08/16 10:31:46;;;;;;;5.03;2.85;;;;;;;37.39;47.19;96448.44;5056206;28;20501;-86
2023/08/16 10:34:21;;;;;;;6.45;3.60;;;;;;;38.27;44.83;96436.00;5066691;28;20020;-87
2023/08/16 10:36:47;;;;;;;5.53;2.95;;;;;;;38.71;43.65;96440.06;5055465;28;20021;-87
2023/08/16 10:39:22;;;;;;;6.97;3.17;;;;;;;37.32;46.70;96442.66;5052395;28;20029;-88
2023/08/16 10:42:07;;;;;;;4.90;2.88;;;;;;;37.89;45.17;96434.06;5055034;28;20116;-87
2023/08/16 10:44:33;;;;;;;4.78;3.10;;;;;;;38.09;44.91;96427.06;5056709;28;20021;-87
2023/08/16 10:46:59;;;;;;;5.68;3.10;;;;;;;38.09;43.78;96427.84;5073171;28;20037;-88
2023/08/16 10:49:37;;;;;;;5.10;3.20;;;;;;;38.25;45.68;96428.06;5056299;28;20039;-87
2023/08/16 10:52:03;;;;;;;6.07;3.20;;;;;;;39.04;44.86;96431.88;5056301;28;20023;-87
2023/08/16 10:54:34;;;;;;;6.43;3.00;;;;;;;39.13;42.29;96432.56;5073255;28;20028;-86
2023/08/16 10:57:05;;;;;;;4.45;2.75;;;;;;;40.20;39.99;96424.34;5057269;28;20064;-86
2023/08/16 10:59:38;;;;;;;5.97;3.05;;;;;;;38.66;44.03;96423.75;5042275;28;20029;-86
2023/08/16 11:02:18;;;;;;;4.93;3.17;;;;;;;38.90;43.48;96417.59;5063473;28;20020;-87
2023/08/16 11:04:46;;;;;;;5.53;3.10;;;;;;;38.53;45.02;96413.84;5055875;28;20383;-87
2023/08/16 11:07:12;;;;;;;6.88;3.80;;;;;;;38.87;44.63;96419.09;5069993;28;20050;-86
2023/08/16 11:09:39;;;;;;;5.35;3.00;;;;;;;38.96;44.62;96418.19;5066840;28;20052;-87
2023/08/16 11:12:06;;;;;;;5.75;3.28;;;;;;;38.45;42.63;96412.78;5072419;28;20398;-87
2023/08/16 11:14:33;;;;;;;8.60;5.85;;;;;;;40.56;40.71;96419.13;5072686;28;20020;-87
2023/08/16 11:16:59;;;;;;;6.70;3.30;;;;;;;40.01;41.99;96404.88;5071858;28;20100;-87
2023/08/16 11:19:25;;;;;;;4.32;3.00;;;;;;;39.17;42.89;96416.19;5055409;28;20048;-87
2023/08/16 11:21:51;;;;;;;10.43;3.72;;;;;;;40.55;41.38;96409.25;5058239;28;20112;-87
2023/08/16 11:24:18;;;;;;;3.67;2.75;;;;;;;39.84;43.22;96405.88;5058126;28;20017;-87
2023/08/16 11:26:43;;;;;;;5.35;3.45;;;;;;;39.77;40.88;96417.47;5047156;28;20028;-87
2023/08/16 11:29:09;;;;;;;6.75;3.13;;;;;;;39.49;40.85;96416.50;5056198;28;20093;-87
2023/08/16 11:31:36;;;;;;;6.10;3.00;;;;;;;37.83;43.93;96424.41;5066939;28;20024;-87
2023/08/16 11:34:08;;;;;;;4.68;3.28;;;;;;;41.00;38.99;96409.78;5057746;28;20032;-87
2023/08/16 11:36:39;;;;;;;8.75;4.72;;;;;;;40.80;38.57;96410.00;5045340;28;20017;-87